Time;durP1;ratioP1;P1;durP2;ratioP2;P2;SDS_P1;SDS_P2;PMS_P1;PMS_P2;Temp;Humidity;BMP_temperature;BMP_pressure;BME280_temperature;BME280_humidity;BME280_pressure;Samples;Min_cycle;Max_cycle;Signal;HPM_P1;HPM_P2
2022/12/27 00:01:22;;;;;;;18.40;4.85;;;3.50;99.90;;;;;;5000335;28;89522;-31
2022/12/27 00:03:47;;;;;;;8.65;4.68;;;3.60;99.90;;;;;;5000424;28;90245;-32
2022/12/27 00:06:20;;;;;;;8.90;4.30;;;3.50;99.90;;;;;;4999797;28;89411;-35
2022/12/27 00:08:46;;;;;;;11.63;4.53;;;3.50;99.90;;;;;;5000140;28;89337;-34
2022/12/27 00:11:19;;;;;;;15.05;5.28;;;3.50;99.90;;;;;;4999350;28;89871;-34
2022/12/27 00:13:45;;;;;;;8.15;4.65;;;3.60;99.90;;;;;;5000453;28;89656;-32
2022/12/27 00:16:14;;;;;;;9.38;4.35;;;3.50;99.90;;;;;;5000067;28;90209;-32
2022/12/27 00:18:40;;;;;;;14.25;4.75;;;3.50;99.90;;;;;;4999411;28;90310;-32
2022/12/27 00:21:08;;;;;;;7.30;4.20;;;3.50;99.90;;;;;;5000172;28;89061;-33
2022/12/27 00:23:37;;;;;;;11.50;4.18;;;3.40;99.90;;;;;;5000443;28;90299;-33
2022/12/27 00:26:05;;;;;;;8.93;4.07;;;3.50;99.90;;;;;;4999843;28;91009;-33
2022/12/27 00:28:32;;;;;;;;;;;3.50;99.90;;;;;;5000183;28;90357;-34
2022/12/27 00:30:58;;;;;;;4.82;3.20;;;3.40;99.90;;;;;;5001325;28;90167;-34
2022/12/27 00:33:25;;;;;;;6.57;3.50;;;3.50;99.90;;;;;;4999924;28;89874;-34
2022/12/27 00:35:50;;;;;;;13.48;4.03;;;3.50;99.90;;;;;;5000454;28;89342;-32
2022/12/27 00:38:16;;;;;;;5.78;3.58;;;3.60;99.90;;;;;;5000058;28;88619;-32
2022/12/27 00:40:42;;;;;;;10.70;5.38;;;3.50;99.90;;;;;;4999784;28;89850;-33
2022/12/27 00:43:07;;;;;;;8.82;4.13;;;3.50;99.90;;;;;;4999628;28;89792;-32
2022/12/27 00:45:33;;;;;;;6.88;4.20;;;3.50;99.90;;;;;;4999986;28;88756;-32
2022/12/27 00:47:58;;;;;;;6.32;3.40;;;3.50;99.90;;;;;;4999766;28;89395;-33
2022/12/27 00:50:24;;;;;;;11.80;4.05;;;3.50;99.90;;;;;;5000319;28;89417;-33
2022/12/27 00:52:50;;;;;;;14.82;4.05;;;3.50;99.90;;;;;;4999418;28;89883;-33
2022/12/27 00:55:16;;;;;;;9.20;4.20;;;3.60;99.90;;;;;;4998834;28;89365;-32
2022/12/27 00:57:41;;;;;;;6.05;3.85;;;3.70;99.90;;;;;;4999775;28;89346;-32
2022/12/27 01:00:08;;;;;;;7.05;4.35;;;3.60;99.90;;;;;;4999369;28;87914;-32
2022/12/27 01:02:33;;;;;;;6.22;4.22;;;3.60;99.90;;;;;;5000125;28;90464;-33
2022/12/27 01:04:59;;;;;;;8.55;4.00;;;3.60;99.90;;;;;;5000258;28;89430;-34
2022/12/27 01:07:24;;;;;;;6.78;3.55;;;3.60;99.90;;;;;;4999168;28;89874;-33
2022/12/27 01:09:50;;;;;;;12.07;4.50;;;3.60;99.90;;;;;;5000155;28;89540;-31
2022/12/27 01:12:16;;;;;;;8.85;4.18;;;3.60;99.90;;;;;;4998643;28;90659;-32
2022/12/27 01:14:42;;;;;;;7.10;4.57;;;3.60;99.90;;;;;;4999107;28;90652;-32
2022/12/27 01:17:07;;;;;;;5.50;3.95;;;3.60;99.90;;;;;;4999005;28;89520;-34
2022/12/27 01:19:37;;;;;;;12.23;4.65;;;3.60;99.90;;;;;;5000030;28;89408;-36
2022/12/27 01:22:03;;;;;;;12.15;4.50;;;3.50;99.90;;;;;;4999084;28;90069;-33
2022/12/27 01:24:28;;;;;;;8.77;4.30;;;3.50;99.90;;;;;;4998899;28;88897;-33
2022/12/27 01:26:54;;;;;;;14.50;4.90;;;3.50;99.90;;;;;;4999243;28;90017;-34
2022/12/27 01:29:19;;;;;;;10.55;4.85;;;3.50;99.90;;;;;;4999718;28;89499;-32
2022/12/27 01:31:45;;;;;;;6.20;3.83;;;3.60;99.90;;;;;;4998140;28;90350;-32
2022/12/27 01:34:11;;;;;;;10.32;4.55;;;3.50;99.90;;;;;;4999573;28;90050;-34
2022/12/27 01:36:37;;;;;;;8.77;4.22;;;3.50;99.90;;;;;;4997780;28;90825;-33
2022/12/27 01:39:02;;;;;;;6.47;4.28;;;3.50;99.90;;;;;;4999026;28;89874;-34
2022/12/27 01:44:48;;;;;;;12.95;4.78;;;3.40;99.90;;;;;;4998820;28;91342;-32
2022/12/27 01:47:34;;;;;;;5.83;4.00;;;3.40;99.90;;;;;;4987515;28;90157;-34
2022/12/27 01:50:15;;;;;;;10.85;4.93;;;3.40;99.90;;;;;;4998851;28;90247;-33
2022/12/27 01:52:49;;;;;;;12.68;5.35;;;3.40;99.90;;;;;;4998558;28;90072;-34
2022/12/27 01:55:29;;;;;;;8.85;4.18;;;3.50;99.90;;;;;;4998731;28;89565;-33
2022/12/27 01:58:02;;;;;;;5.75;4.25;;;3.40;99.90;;;;;;4998884;28;89500;-35
2022/12/27 02:00:27;;;;;;;9.07;4.93;;;3.40;99.90;;;;;;4998526;28;88311;-33
2022/12/27 02:02:53;;;;;;;8.77;4.63;;;3.40;99.90;;;;;;4998836;28;90436;-33
2022/12/27 02:05:22;;;;;;;9.18;4.57;;;3.40;99.90;;;;;;4998321;28;90639;-33
2022/12/27 02:07:54;;;;;;;11.65;5.38;;;3.40;99.90;;;;;;4999996;28;91210;-32
2022/12/27 02:10:20;;;;;;;4.75;4.18;;;3.40;99.90;;;;;;5002461;28;89184;-32
2022/12/27 02:12:45;;;;;;;10.05;5.82;;;3.50;99.90;;;;;;5001758;28;89345;-31
2022/12/27 02:15:12;;;;;;;18.15;5.90;;;3.40;99.90;;;;;;5002707;28;88504;-36
2022/12/27 02:17:37;;;;;;;6.13;4.68;;;3.40;99.90;;;;;;5001990;28;90993;-33
2022/12/27 02:20:20;;;;;;;9.95;4.65;;;3.40;99.90;;;;;;5002332;28;88709;-33
2022/12/27 02:26:34;;;;;;;6.57;4.72;;;3.40;99.90;;;;;;5001714;28;90888;-33
2022/12/27 02:29:02;;;;;;;14.18;5.07;;;3.40;99.90;;;;;;4964763;28;89482;-34
2022/12/27 02:31:39;;;;;;;13.77;4.53;;;3.50;99.90;;;;;;5000821;28;90500;-33
2022/12/27 02:34:13;;;;;;;10.27;4.37;;;3.40;99.90;;;;;;5001211;28;90275;-32
2022/12/27 02:36:40;;;;;;;9.35;4.47;;;3.40;99.90;;;;;;5001456;28;89778;-35
2022/12/27 02:39:09;;;;;;;11.90;5.18;;;3.50;99.90;;;;;;5001568;28;89943;-35
2022/12/27 02:53:06;;;;;;;12.30;5.47;;;3.40;99.90;;;;;;4998803;28;89732;-33
2022/12/27 02:58:50;;;;;;;16.15;5.38;;;3.30;99.90;;;;;;5020250;28;91477;-33
2022/12/27 03:04:19;;;;;;;17.80;7.00;;;3.20;99.90;;;;;;5021341;28;89397;-34
2022/12/27 03:07:09;;;;;;;14.65;5.90;;;3.30;99.90;;;;;;5020493;28;89880;-34
2022/12/27 03:16:07;;;;;;;12.85;7.88;;;3.20;99.90;;;;;;5021854;28;88772;-34
2022/12/27 03:18:54;;;;;;;9.25;6.30;;;3.30;99.90;;;;;;5000351;28;89537;-34
2022/12/27 03:27:19;;;;;;;12.35;7.80;;;3.40;99.90;;;;;;5021454;28;89926;-32
2022/12/27 03:35:32;;;;;;;22.15;6.97;;;3.70;99.90;;;;;;4998693;28;89433;-32
2022/12/27 03:38:01;;;;;;;11.52;6.57;;;3.80;99.90;;;;;;5021142;27;88816;-32
2022/12/27 03:43:09;;;;;;;10.57;5.80;;;3.90;99.90;;;;;;5020220;27;89758;-35
2022/12/27 03:43:30;;;;;;;14.95;6.40;;;3.90;99.90;;;;;;5020633;28;90585;-32
2022/12/27 03:46:32;;;;;;;15.90;6.75;;;3.90;99.90;;;;;;5020885;28;89558;-35
2022/12/27 03:49:19;;;;;;;18.98;6.65;;;3.90;99.90;;;;;;5021176;27;88398;-35
2022/12/27 03:52:09;;;;;;;10.65;6.80;;;3.90;99.90;;;;;;5005833;28;89237;-32
2022/12/27 03:54:38;;;;;;;15.45;7.30;;;3.90;99.90;;;;;;5020047;28;90355;-33
2022/12/27 03:57:11;;;;;;;17.40;6.55;;;3.90;99.90;;;;;;5020297;28;90362;-32
2022/12/27 03:59:37;;;;;;;14.68;6.47;;;4.00;99.90;;;;;;5020834;27;89172;-33
2022/12/27 04:02:04;;;;;;;20.45;6.07;;;4.00;99.90;;;;;;5021033;28;90213;-33
2022/12/27 04:04:29;;;;;;;11.20;5.07;;;4.00;99.90;;;;;;5020043;27;89120;-33
2022/12/27 04:06:55;;;;;;;8.10;4.65;;;4.00;99.90;;;;;;5020568;28;89078;-32
2022/12/27 04:36:44;;;;;;;13.27;4.53;;;3.90;99.90;;;;;;5019615;28;89426;-35
2022/12/27 04:39:10;;;;;;;13.02;4.70;;;4.00;99.90;;;;;;5020665;28;89759;-36
2022/12/27 04:55:22;;;;;;;12.98;3.55;;;4.30;99.90;;;;;;5019203;28;90210;-32
2022/12/27 04:57:48;;;;;;;6.55;3.17;;;4.30;99.90;;;;;;5019422;27;89150;-32
2022/12/27 05:03:02;;;;;;;6.93;3.72;;;4.40;99.90;;;;;;5020274;28;89862;-34
2022/12/27 05:05:28;;;;;;;8.27;3.67;;;4.40;99.90;;;;;;5019919;27;89544;-32
2022/12/27 05:16:08;;;;;;;6.35;3.00;;;4.40;99.90;;;;;;5018711;28;90264;-33
2022/12/27 05:18:34;;;;;;;7.18;3.95;;;4.40;99.90;;;;;;5020039;28;89701;-32
2022/12/27 05:21:04;;;;;;;16.85;4.28;;;4.40;99.90;;;;;;5019197;28;89456;-33
2022/12/27 05:26:26;;;;;;;15.38;4.95;;;4.40;99.90;;;;;;5019393;28;90232;-36
2022/12/27 05:28:53;;;;;;;10.38;3.80;;;4.40;99.90;;;;;;5019219;28;89560;-35
2022/12/27 05:31:20;;;;;;;8.48;3.45;;;4.40;99.90;;;;;;5018204;28;89701;-33
2022/12/27 05:33:46;;;;;;;8.80;4.15;;;4.40;99.90;;;;;;5018845;28;88678;-32
2022/12/27 05:36:11;;;;;;;12.93;3.72;;;4.40;99.90;;;;;;5019079;28;90513;-33
2022/12/27 05:38:37;;;;;;;7.05;4.05;;;4.40;99.90;;;;;;5018316;28;90320;-33
2022/12/27 05:41:04;;;;;;;8.80;4.13;;;4.40;99.90;;;;;;5019093;27;89914;-36
2022/12/27 05:43:30;;;;;;;13.70;4.55;;;4.40;99.90;;;;;;5022269;27;90006;-32
2022/12/27 05:46:02;;;;;;;8.32;3.78;;;4.40;99.90;;;;;;5022538;27;90186;-34
2022/12/27 05:48:28;;;;;;;9.88;3.88;;;4.30;99.90;;;;;;5022735;28;89920;-34
2022/12/27 05:50:53;;;;;;;8.25;4.97;;;4.30;99.90;;;;;;5013181;28;89292;-33
2022/12/27 05:53:19;;;;;;;11.30;4.82;;;4.30;99.90;;;;;;5017747;28;89113;-34
2022/12/27 05:55:53;;;;;;;10.18;4.25;;;4.20;99.90;;;;;;5022692;28;89996;-33
2022/12/27 05:58:18;;;;;;;10.73;5.20;;;4.20;99.90;;;;;;5022782;28;89396;-32
2022/12/27 06:00:44;;;;;;;11.15;4.60;;;4.20;99.90;;;;;;5021320;28;90024;-32
2022/12/27 06:03:09;;;;;;;6.47;4.55;;;4.10;99.90;;;;;;5022579;28;89779;-32
2022/12/27 06:05:35;;;;;;;7.75;4.22;;;4.10;99.90;;;;;;5021980;28;89922;-33
2022/12/27 06:08:00;;;;;;;9.07;4.13;;;4.10;99.90;;;;;;5022752;28;87895;-36
2022/12/27 06:10:26;;;;;;;7.05;4.13;;;4.20;99.90;;;;;;5022246;28;90495;-33
2022/12/27 06:12:51;;;;;;;16.80;4.22;;;4.20;99.90;;;;;;5022252;28;89564;-36
2022/12/27 06:15:17;;;;;;;16.55;4.63;;;4.10;99.90;;;;;;5022679;28;88881;-33
2022/12/27 06:17:43;;;;;;;13.77;5.47;;;4.10;99.90;;;;;;5021220;28;89356;-33
2022/12/27 06:20:09;;;;;;;12.27;4.68;;;4.10;99.90;;;;;;5023000;28;89331;-32
2022/12/27 06:22:35;;;;;;;8.90;4.13;;;4.10;99.90;;;;;;5021934;27;87790;-32
2022/12/27 06:25:01;;;;;;;16.65;5.20;;;4.10;99.90;;;;;;5010704;28;90516;-33
2022/12/27 06:27:26;;;;;;;14.35;4.80;;;4.10;99.90;;;;;;5016806;28;91207;-31
2022/12/27 06:29:52;;;;;;;8.30;4.30;;;4.10;99.90;;;;;;5021774;28;90280;-32
2022/12/27 06:32:17;;;;;;;10.45;4.28;;;4.20;99.90;;;;;;5022074;28;89592;-33
2022/12/27 06:34:43;;;;;;;12.00;3.88;;;4.10;99.90;;;;;;5021521;28;90261;-34
2022/12/27 06:37:09;;;;;;;13.43;4.55;;;4.10;99.90;;;;;;5020096;28;89621;-36
2022/12/27 06:39:35;;;;;;;9.15;4.72;;;4.10;99.90;;;;;;5021718;27;89670;-35
2022/12/27 06:42:01;;;;;;;10.20;3.55;;;4.10;99.90;;;;;;5022009;28;88955;-34
2022/12/27 06:44:26;;;;;;;15.90;5.60;;;4.10;99.90;;;;;;5022416;28;91439;-34
2022/12/27 06:46:52;;;;;;;6.32;3.78;;;4.00;99.90;;;;;;5021303;28;90215;-32
2022/12/27 06:49:17;;;;;;;17.63;4.63;;;4.10;99.90;;;;;;5020747;28;89150;-34
2022/12/27 06:51:43;;;;;;;6.43;4.50;;;4.10;99.90;;;;;;5006632;28;89853;-35
2022/12/27 06:54:09;;;;;;;8.77;3.53;;;4.20;99.90;;;;;;5021505;28;90364;-32
2022/12/27 06:56:34;;;;;;;11.43;4.13;;;4.20;99.90;;;;;;5021456;28;89848;-33
2022/12/27 06:59:00;;;;;;;8.25;4.53;;;4.20;99.90;;;;;;5020756;28;90315;-33
2022/12/27 07:01:27;;;;;;;9.68;4.60;;;4.30;99.90;;;;;;5021876;28;89191;-32
2022/12/27 07:03:56;;;;;;;11.43;4.05;;;4.30;99.90;;;;;;5021223;27;89120;-33
2022/12/27 07:06:23;;;;;;;8.85;4.32;;;4.20;99.90;;;;;;5021207;27;89266;-34
2022/12/27 07:08:50;;;;;;;10.43;3.65;;;4.10;99.90;;;;;;5021361;27;90053;-34
2022/12/27 07:11:17;;;;;;;8.38;3.90;;;4.00;99.90;;;;;;5022426;27;89282;-32
2022/12/27 07:13:48;;;;;;;11.57;4.63;;;4.00;99.90;;;;;;5021799;27;90812;-33
2022/12/27 07:16:18;;;;;;;13.95;4.25;;;4.00;99.90;;;;;;5021409;27;90194;-34
2022/12/27 07:18:44;;;;;;;9.80;4.05;;;4.00;99.90;;;;;;5021008;27;89939;-34
2022/12/27 07:21:16;;;;;;;9.65;4.13;;;4.00;99.90;;;;;;4992909;28;88021;-34
2022/12/27 07:23:42;;;;;;;11.10;4.55;;;3.90;99.90;;;;;;5021610;27;90617;-32
2022/12/27 07:26:13;;;;;;;12.45;4.72;;;3.90;99.90;;;;;;5021328;28;89596;-33
2022/12/27 07:28:40;;;;;;;7.45;4.10;;;3.90;99.90;;;;;;5020935;27;89806;-33
2022/12/27 07:31:17;;;;;;;11.85;4.90;;;3.80;99.90;;;;;;5021320;27;89501;-33
2022/12/27 07:33:43;;;;;;;7.18;4.20;;;3.80;99.90;;;;;;5021192;27;90546;-32
2022/12/27 07:36:13;;;;;;;10.60;4.82;;;3.80;99.90;;;;;;5020711;27;90098;-32
2022/12/27 07:38:39;;;;;;;8.73;4.85;;;3.70;99.90;;;;;;5021204;27;90317;-33
2022/12/27 07:41:05;;;;;;;7.80;4.60;;;3.60;99.90;;;;;;5020650;28;89032;-33
2022/12/27 07:43:34;;;;;;;7.75;4.38;;;3.60;99.90;;;;;;5020751;28;89869;-32
2022/12/27 07:46:09;;;;;;;11.27;5.25;;;3.60;99.90;;;;;;5021029;28;89667;-34
2022/12/27 07:48:36;;;;;;;16.27;5.05;;;3.60;99.90;;;;;;5019047;28;90080;-34
2022/12/27 07:51:02;;;;;;;12.55;5.88;;;3.60;99.90;;;;;;5012802;27;89432;-35
2022/12/27 07:53:28;;;;;;;23.65;6.55;;;3.50;99.90;;;;;;5012798;27;90081;-33
2022/12/27 07:55:53;;;;;;;10.52;5.50;;;3.50;99.90;;;;;;4998943;28;89525;-32
2022/12/27 07:58:19;;;;;;;18.45;6.35;;;3.50;99.90;;;;;;5000809;28;89122;-34
2022/12/27 08:00:48;;;;;;;10.45;6.15;;;3.60;99.90;;;;;;5000302;28;88022;-32
2022/12/27 08:03:14;;;;;;;19.65;6.97;;;3.60;99.90;;;;;;5000824;28;89745;-33
2022/12/27 08:05:48;;;;;;;11.10;6.50;;;3.50;99.90;;;;;;4999090;28;90033;-33
2022/12/27 08:08:16;;;;;;;11.02;7.18;;;3.50;99.90;;;;;;4992251;28;90170;-33
2022/12/27 08:10:42;;;;;;;10.32;6.45;;;3.50;99.90;;;;;;4999795;28;89131;-33
2022/12/27 08:13:08;;;;;;;14.55;6.45;;;3.50;99.90;;;;;;5000951;28;89344;-33
2022/12/27 08:15:35;;;;;;;13.70;5.80;;;3.50;99.90;;;;;;5000444;28;90963;-35
2022/12/27 08:18:01;;;;;;;18.55;5.75;;;3.50;99.90;;;;;;5008839;28;89955;-32
2022/12/27 08:20:27;;;;;;;17.67;7.10;;;3.50;99.90;;;;;;5000779;28;87982;-34
2022/12/27 08:22:53;;;;;;;13.50;5.82;;;3.50;99.90;;;;;;4999732;28;90555;-35
2022/12/27 08:25:18;;;;;;;11.65;6.22;;;3.50;99.90;;;;;;5001154;28;89973;-36
2022/12/27 08:27:44;;;;;;;9.02;5.80;;;3.50;99.90;;;;;;4999518;28;90020;-33
2022/12/27 08:30:10;;;;;;;10.88;5.85;;;3.50;99.90;;;;;;4999851;28;90263;-33
2022/12/27 08:32:36;;;;;;;14.40;6.20;;;3.60;99.90;;;;;;4999693;28;90148;-36
2022/12/27 08:35:01;;;;;;;12.10;6.30;;;3.60;99.90;;;;;;4999488;28;89167;-34
2022/12/27 08:37:27;;;;;;;15.73;5.82;;;3.60;99.90;;;;;;5013287;28;90111;-34
2022/12/27 08:39:52;;;;;;;10.43;6.35;;;3.60;99.90;;;;;;5009227;28;88484;-34
2022/12/27 08:42:18;;;;;;;14.02;6.55;;;3.70;99.90;;;;;;5014951;28;90119;-33
2022/12/27 08:44:43;;;;;;;13.80;5.57;;;3.70;99.90;;;;;;5010428;28;89923;-35
2022/12/27 08:47:09;;;;;;;10.93;6.22;;;3.80;99.90;;;;;;5011123;28;89408;-33
2022/12/27 08:49:35;;;;;;;16.10;7.00;;;3.80;99.90;;;;;;5015194;28;89361;-36
2022/12/27 08:52:00;;;;;;;8.70;5.05;;;3.90;99.90;;;;;;5010588;28;89769;-35
2022/12/27 08:54:26;;;;;;;13.35;6.18;;;3.90;99.90;;;;;;5013847;28;90247;-35
2022/12/27 08:56:51;;;;;;;7.75;5.28;;;4.00;99.90;;;;;;5013953;28;91059;-34
2022/12/27 08:59:17;;;;;;;14.13;4.68;;;4.00;99.90;;;;;;4999930;28;87787;-34
2022/12/27 09:01:42;;;;;;;10.38;6.20;;;4.10;99.90;;;;;;5013617;28;90336;-33
2022/12/27 09:04:08;;;;;;;7.28;4.82;;;4.10;99.90;;;;;;4998915;28;89673;-33
2022/12/27 09:06:34;;;;;;;11.43;6.28;;;4.10;99.90;;;;;;4999421;28;89474;-32
2022/12/27 09:09:00;;;;;;;10.82;5.47;;;4.10;99.90;;;;;;4998635;28;89655;-33
2022/12/27 09:11:32;;;;;;;10.32;5.15;;;4.10;99.90;;;;;;4999468;28;90596;-33
2022/12/27 09:14:00;;;;;;;6.38;5.22;;;4.10;99.90;;;;;;4998591;28;89272;-33
2022/12/27 09:16:29;;;;;;;10.80;6.03;;;4.20;99.90;;;;;;4999440;28;90036;-36
2022/12/27 09:18:57;;;;;;;14.82;6.57;;;4.30;99.90;;;;;;5001455;28;88087;-33
2022/12/27 09:21:25;;;;;;;12.27;6.22;;;4.30;99.90;;;;;;5002998;27;90349;-35
2022/12/27 09:23:51;;;;;;;8.88;6.63;;;4.40;99.90;;;;;;4996870;28;90133;-33
2022/12/27 09:26:19;;;;;;;11.40;6.03;;;4.40;99.90;;;;;;4996321;28;90648;-32
2022/12/27 09:28:46;;;;;;;7.90;6.07;;;4.40;99.90;;;;;;4996565;28;89283;-36
2022/12/27 09:31:13;;;;;;;10.25;6.53;;;4.40;99.90;;;;;;4994625;28;90349;-33
2022/12/27 09:33:39;;;;;;;13.70;6.80;;;4.40;99.90;;;;;;5043657;22;90807;-33
2022/12/27 09:36:07;;;;;;;14.10;6.80;;;4.50;99.90;;;;;;5013502;28;90517;-35
2022/12/27 09:38:33;;;;;;;19.17;5.85;;;4.50;99.90;;;;;;5012730;28;89541;-32
2022/12/27 09:41:02;;;;;;;8.30;5.78;;;4.50;99.90;;;;;;5011351;28;90655;-33
2022/12/27 09:43:39;;;;;;;11.38;6.00;;;4.50;99.90;;;;;;5013114;28;90758;-34
2022/12/27 09:46:14;;;;;;;12.38;6.57;;;4.60;99.90;;;;;;5011665;28;90327;-36
2022/12/27 09:48:40;;;;;;;18.00;6.07;;;4.80;99.90;;;;;;5013275;28;87638;-35
2022/12/27 09:51:34;;;;;;;15.25;6.50;;;4.80;99.90;;;;;;5004444;28;91248;-33
2022/12/27 09:54:12;;;;;;;9.85;4.97;;;4.90;99.90;;;;;;4997311;28;89427;-35
2022/12/27 09:56:37;;;;;;;9.32;5.53;;;5.00;99.90;;;;;;4996906;28;89608;-35
2022/12/27 09:59:18;;;;;;;16.80;6.55;;;5.10;99.90;;;;;;4996193;28;89567;-34
2022/12/27 10:01:46;;;;;;;13.52;6.28;;;5.20;99.90;;;;;;4996791;28;90654;-34
2022/12/27 10:04:13;;;;;;;9.13;5.90;;;5.20;99.90;;;;;;4999195;28;88315;-34
2022/12/27 10:06:48;;;;;;;9.63;5.30;;;5.30;99.90;;;;;;4999579;28;89905;-33
2022/12/27 10:09:32;;;;;;;17.95;5.53;;;5.30;99.90;;;;;;5006180;28;88984;-32
2022/12/27 10:12:07;;;;;;;10.32;5.90;;;5.30;99.90;;;;;;5008995;28;89360;-32
2022/12/27 10:14:58;;;;;;;15.57;5.00;;;5.40;99.90;;;;;;4998773;28;89678;-34
2022/12/27 10:17:44;;;;;;;8.27;4.70;;;5.40;99.90;;;;;;4995522;28;90059;-35
2022/12/27 10:20:44;;;;;;;13.45;5.20;;;5.40;99.90;;;;;;4995812;28;88459;-34
2022/12/27 10:23:14;;;;;;;15.00;6.47;;;5.50;99.90;;;;;;5007509;28;89482;-32
2022/12/27 10:25:40;;;;;;;11.05;5.95;;;5.60;99.90;;;;;;5009935;28;89753;-34
2022/12/27 10:28:16;;;;;;;9.20;5.22;;;5.60;99.90;;;;;;5009370;27;89263;-32
2022/12/27 10:30:42;;;;;;;20.58;6.43;;;5.70;99.90;;;;;;5015095;27;88796;-34
2022/12/27 10:33:24;;;;;;;13.27;5.18;;;5.80;99.90;;;;;;5023235;28;90176;-33
2022/12/27 10:35:50;;;;;;;10.07;5.72;;;5.80;99.90;;;;;;5024977;27;90050;-34
2022/12/27 10:38:15;;;;;;;15.98;6.18;;;5.80;99.90;;;;;;5022397;28;90858;-35
2022/12/27 10:40:58;;;;;;;13.23;5.35;;;5.80;99.90;;;;;;5025756;28;87790;-35
2022/12/27 10:43:34;;;;;;;14.65;5.47;;;5.80;99.90;;;;;;5011820;28;89184;-37
2022/12/27 10:46:22;;;;;;;10.30;5.38;;;5.80;99.90;;;;;;5019091;27;89840;-36
2022/12/27 10:49:14;;;;;;;22.97;6.67;;;5.90;99.90;;;;;;5014516;28;89291;-32
2022/12/27 10:51:41;;;;;;;16.05;5.82;;;5.90;99.90;;;;;;4999863;28;88881;-35
2022/12/27 10:54:13;;;;;;;12.65;6.32;;;6.00;99.90;;;;;;5000462;28;89646;-33
2022/12/27 10:56:40;;;;;;;7.55;5.50;;;6.10;99.90;;;;;;4998536;28;89406;-36
2022/12/27 10:59:15;;;;;;;14.05;5.25;;;6.10;99.90;;;;;;5000993;28;89653;-34
2022/12/27 11:01:42;;;;;;;12.13;6.68;;;6.00;99.90;;;;;;5000827;28;88766;-36
2022/12/27 11:04:14;;;;;;;14.35;6.55;;;6.00;99.90;;;;;;5003274;28;89060;-37
2022/12/27 11:06:41;;;;;;;11.25;6.32;;;6.00;99.90;;;;;;5005152;28;89429;-33
2022/12/27 11:09:32;;;;;;;9.05;4.88;;;5.90;99.90;;;;;;5004919;28;89702;-34
2022/12/27 11:12:19;;;;;;;7.43;4.60;;;6.00;99.90;;;;;;5012470;28;89112;-32
2022/12/27 11:15:16;;;;;;;10.50;6.40;;;6.20;99.90;;;;;;5008418;28;90080;-32
2022/12/27 11:17:51;;;;;;;12.00;5.13;;;6.40;99.90;;;;;;5006407;28;89705;-33
2022/12/27 11:20:22;;;;;;;10.07;6.22;;;6.50;99.90;;;;;;4999356;28;89637;-35
2022/12/27 11:23:09;;;;;;;8.70;4.88;;;6.50;99.90;;;;;;4999026;28;88469;-34
2022/12/27 11:25:54;;;;;;;16.90;5.43;;;6.50;99.90;;;;;;4997732;28;90576;-32
2022/12/27 11:28:43;;;;;;;13.02;4.85;;;6.60;99.90;;;;;;4998778;28;90683;-35
2022/12/27 11:31:12;;;;;;;12.52;5.05;;;6.60;99.90;;;;;;4999273;28;89987;-33
2022/12/27 11:33:40;;;;;;;8.80;4.13;;;6.60;99.90;;;;;;4998219;28;88947;-36
2022/12/27 11:36:08;;;;;;;10.77;4.80;;;6.50;99.90;;;;;;4998278;28;89981;-33
2022/12/27 11:38:36;;;;;;;10.18;4.30;;;6.50;99.90;;;;;;4999066;28;88672;-37
2022/12/27 11:41:05;;;;;;;8.07;4.18;;;6.60;99.90;;;;;;4997659;28;89464;-34
2022/12/27 11:43:45;;;;;;;15.20;4.88;;;6.60;99.90;;;;;;4999102;28;88300;-33
2022/12/27 11:46:44;;;;;;;14.07;5.40;;;6.60;99.90;;;;;;4999274;28;90471;-33
2022/12/27 11:49:51;;;;;;;9.43;4.97;;;6.70;99.90;;;;;;4984112;28;89721;-34
2022/12/27 11:52:50;;;;;;;10.30;4.50;;;6.80;99.90;;;;;;4973782;28;88297;-35
2022/12/27 11:55:34;;;;;;;;;;;6.80;99.90;;;;;;5000450;28;88748;-33
2022/12/27 11:58:05;;;;;;;11.45;4.38;;;6.90;99.90;;;;;;4998893;28;90678;-36
2022/12/27 12:00:55;;;;;;;13.07;5.65;;;7.00;99.90;;;;;;4997351;28;89870;-35
2022/12/27 12:03:51;;;;;;;21.13;5.07;;;7.00;99.90;;;;;;4998193;28;88270;-33
2022/12/27 12:06:36;;;;;;;8.00;5.18;;;7.10;99.90;;;;;;4999314;28;89329;-32
2022/12/27 12:09:02;;;;;;;13.60;3.88;;;7.00;99.90;;;;;;4999083;28;90867;-34
2022/12/27 12:11:39;;;;;;;12.55;4.47;;;7.00;99.90;;;;;;5001455;28;89074;-34
2022/12/27 12:14:34;;;;;;;12.27;4.75;;;6.90;99.90;;;;;;4997891;28;89282;-33
2022/12/27 12:17:21;;;;;;;16.35;5.28;;;7.00;99.90;;;;;;4998400;28;89859;-33
2022/12/27 12:20:02;;;;;;;13.95;4.95;;;7.00;99.90;;;;;;4992933;28;91334;-34
2022/12/27 12:22:33;;;;;;;10.10;4.75;;;7.00;99.90;;;;;;5003059;28;89693;-36
2022/12/27 12:25:05;;;;;;;15.68;5.50;;;7.10;99.90;;;;;;5001025;28;90638;-33
2022/12/27 12:28:09;;;;;;;11.32;4.15;;;7.00;99.90;;;;;;5003297;28;88401;-35
2022/12/27 12:30:48;;;;;;;9.13;4.55;;;7.10;99.90;;;;;;5002745;28;90166;-33
2022/12/27 12:33:48;;;;;;;14.23;6.07;;;7.10;99.90;;;;;;4996999;28;89691;-33
2022/12/27 12:36:23;;;;;;;7.90;4.65;;;7.00;99.90;;;;;;5007807;28;88406;-35
2022/12/27 12:39:01;;;;;;;10.48;4.63;;;6.90;99.90;;;;;;4996902;28;89023;-32
2022/12/27 12:41:39;;;;;;;7.38;4.93;;;6.90;99.90;;;;;;5008707;27;89571;-35
2022/12/27 12:44:23;;;;;;;7.68;5.65;;;6.80;99.90;;;;;;5013334;28;89318;-35
2022/12/27 12:47:17;;;;;;;10.13;4.88;;;6.70;99.90;;;;;;5009657;28;90147;-37
2022/12/27 12:49:49;;;;;;;13.30;5.30;;;6.70;99.90;;;;;;5009446;28;89980;-33
2022/12/27 12:52:37;;;;;;;7.97;5.82;;;6.60;99.90;;;;;;4983807;28;90656;-33
2022/12/27 12:55:23;;;;;;;11.57;5.90;;;6.60;99.90;;;;;;4998153;28;90912;-34
2022/12/27 12:57:48;;;;;;;12.23;6.15;;;6.70;99.90;;;;;;4997365;28;90974;-33
2022/12/27 13:00:24;;;;;;;14.95;6.60;;;6.70;99.90;;;;;;4997576;28;89214;-34
2022/12/27 13:03:21;;;;;;;13.48;6.22;;;6.70;99.90;;;;;;4997357;28;90681;-35
2022/12/27 13:05:59;;;;;;;18.92;6.70;;;6.60;99.90;;;;;;4997512;28;89340;-34
2022/12/27 13:08:35;;;;;;;14.20;8.05;;;6.70;99.90;;;;;;4997811;28;90769;-33
2022/12/27 13:11:11;;;;;;;11.90;7.00;;;6.70;99.90;;;;;;4997157;28;88849;-34
2022/12/27 13:14:06;;;;;;;10.88;6.68;;;6.60;99.90;;;;;;4996646;28;90164;-35
2022/12/27 13:16:53;;;;;;;17.02;7.90;;;6.60;99.90;;;;;;4986981;28;90257;-34
2022/12/27 13:19:31;;;;;;;16.10;7.95;;;6.60;99.90;;;;;;4996695;28;90229;-34
2022/12/27 13:22:06;;;;;;;12.25;8.18;;;6.60;99.90;;;;;;4997068;28;90231;-34
2022/12/27 13:24:46;;;;;;;11.93;8.45;;;6.60;99.90;;;;;;4998048;28;89564;-35
2022/12/27 13:27:54;;;;;;;14.15;8.55;;;6.60;99.90;;;;;;4999426;28;89861;-35
2022/12/27 13:30:34;;;;;;;15.60;9.48;;;6.60;99.90;;;;;;4997766;28;90521;-33
2022/12/27 13:33:09;;;;;;;15.70;9.25;;;6.60;99.90;;;;;;4997063;28;89174;-35
2022/12/27 13:35:40;;;;;;;18.38;12.20;;;6.60;99.90;;;;;;4997662;28;89992;-36
2022/12/27 13:38:36;;;;;;;19.30;10.57;;;6.60;99.90;;;;;;4997357;28;89740;-36
2022/12/27 13:41:19;;;;;;;23.60;11.30;;;6.60;99.90;;;;;;4998377;28;89815;-34
2022/12/27 13:44:07;;;;;;;13.35;11.68;;;6.60;99.90;;;;;;4993274;28;89653;-35
2022/12/27 13:46:57;;;;;;;20.38;12.23;;;6.50;99.90;;;;;;4995339;28;89901;-32
2022/12/27 13:49:38;;;;;;;13.32;10.35;;;6.50;99.90;;;;;;4998666;28;89030;-36
2022/12/27 13:52:40;;;;;;;19.13;10.95;;;6.50;99.90;;;;;;4996145;28;89699;-34
2022/12/27 13:55:45;;;;;;;15.73;11.27;;;6.60;99.90;;;;;;4995921;28;88533;-33
2022/12/27 13:58:35;;;;;;;18.00;12.82;;;6.70;99.90;;;;;;4996385;28;90930;-33
2022/12/27 14:01:15;;;;;;;19.67;13.98;;;6.60;99.90;;;;;;4984027;28;90021;-34
2022/12/27 14:03:57;;;;;;;20.38;13.02;;;6.60;99.90;;;;;;4996693;28;89676;-34
2022/12/27 14:06:43;;;;;;;21.10;13.45;;;6.60;99.90;;;;;;4999931;28;88922;-35
2022/12/27 14:09:32;;;;;;;15.35;13.35;;;6.60;99.90;;;;;;4999226;28;90233;-33
2022/12/27 14:12:23;;;;;;;21.10;15.43;;;6.50;99.90;;;;;;4998985;28;90584;-33
2022/12/27 14:14:50;;;;;;;17.70;14.27;;;6.40;99.90;;;;;;4999483;28;90296;-34
2022/12/27 14:17:47;;;;;;;22.65;16.25;;;6.40;99.90;;;;;;4998053;28;89297;-35
2022/12/27 14:20:38;;;;;;;28.45;15.75;;;6.30;99.90;;;;;;4998409;28;89527;-35
2022/12/27 14:23:14;;;;;;;20.60;16.35;;;6.30;99.90;;;;;;4992829;28;89918;-34
2022/12/27 14:26:18;;;;;;;19.90;14.88;;;6.30;99.90;;;;;;5004330;28;89224;-34
2022/12/27 14:29:04;;;;;;;28.23;16.35;;;6.30;99.90;;;;;;5003286;28;89503;-37
2022/12/27 14:31:54;;;;;;;20.98;16.10;;;6.30;99.90;;;;;;4992629;28;90633;-33
2022/12/27 14:34:46;;;;;;;19.38;17.35;;;6.20;99.90;;;;;;5004923;28;90167;-36
2022/12/27 14:37:29;;;;;;;22.48;17.60;;;6.20;99.90;;;;;;4999175;28;89573;-36
2022/12/27 14:40:13;;;;;;;33.35;16.70;;;6.10;99.90;;;;;;5001904;28;89555;-35
2022/12/27 14:43:03;;;;;;;21.60;16.58;;;6.10;99.90;;;;;;5004656;28;90408;-35
2022/12/27 14:46:00;;;;;;;22.23;16.27;;;6.00;99.90;;;;;;4997127;28;89796;-33
2022/12/27 14:48:39;;;;;;;22.98;15.73;;;6.00;99.90;;;;;;4996775;28;89545;-33
2022/12/27 14:51:27;;;;;;;22.40;16.40;;;6.00;99.90;;;;;;4997578;28;88340;-36
2022/12/27 14:54:11;;;;;;;18.42;16.35;;;5.90;99.90;;;;;;4997764;28;90358;-33
2022/12/27 14:57:28;;;;;;;20.80;16.45;;;5.80;99.90;;;;;;4998401;28;89564;-36
2022/12/27 15:00:20;;;;;;;23.80;18.20;;;5.90;99.90;;;;;;4934939;28;90405;-37